Terminal Aerodrome Forecast
Issued by NWS

Home | Current Version | Previous Version | Text Only | Print | Product List | Glossary On
Versions: 1 2 3 4 5 6 7 8 9 10 11 12 13 14 15 16 17 18 19 20 21 22 23 24 25 26 27 28 29 30 31 32 33 34 35 36 37 38 39 40 41 42 43 44 45 46 47 48 49
000
FTUS42 KGSP 172300
TAFHKY
TAF
KHKY 172333Z 1800/1824 00000KT P6SM SKC
     FM180400 00000KT 5SM BR BKN035
     FM180600 00000KT 3SM BR SCT018
     FM180800 00000KT 3SM BR BKN011
     FM181500 05004KT P6SM BKN035
     FM182000 00000KT P6SM SCT050=

USA.gov is the U.S. government's official web portal to all federal, state and local government web resources and services.